Time;durP1;ratioP1;P1;durP2;ratioP2;P2;SDS_P1;SDS_P2;PMS_P1;PMS_P2;Temp;Humidity;BMP_temperature;BMP_pressure;BME280_temperature;BME280_humidity;BME280_pressure;Samples;Min_cycle;Max_cycle;Signal;HPM_P1;HPM_P2
2021/12/27 00:00:47;;;;;;;;;;;;;;;4.58;73.12;100149.94;5052615;28;19924;-64
2021/12/27 00:03:12;;;;;;;;;;;;;;;4.60;73.19;100142.31;5056987;28;19943;-64
2021/12/27 00:05:37;;;;;;;;;;;;;;;4.62;73.09;100145.66;5056426;28;20411;-64
2021/12/27 00:08:03;;;;;;;;;;;;;;;4.63;73.21;100141.84;5051529;28;19921;-66
2021/12/27 00:10:28;;;;;;;;;;;;;;;4.63;72.91;100144.59;5053809;28;19924;-64
2021/12/27 00:12:54;;;;;;;;;;;;;;;4.63;73.08;100139.09;5055666;28;20336;-64
2021/12/27 00:15:19;;;;;;;;;;;;;;;4.64;73.03;100138.03;5055803;28;19932;-64
2021/12/27 00:17:46;;;;;;;;;;;;;;;4.63;72.93;100144.59;5055640;28;19952;-64
2021/12/27 00:20:14;;;;;;;;;;;;;;;4.63;73.38;100141.00;5056338;28;19936;-64
2021/12/27 00:22:39;;;;;;;;;;;;;;;4.63;73.10;100135.50;5051857;28;19993;-64
2021/12/27 00:25:05;;;;;;;;;;;;;;;4.64;73.18;100134.47;5053522;28;19978;-63
2021/12/27 00:27:30;;;;;;;;;;;;;;;4.64;73.26;100134.47;5055011;28;19921;-64
2021/12/27 00:29:56;;;;;;;;;;;;;;;4.64;73.44;100140.78;5054939;28;19927;-64
2021/12/27 00:32:21;;;;;;;;;;;;;;;4.65;73.06;100131.47;5055049;28;19971;-64
2021/12/27 00:34:46;;;;;;;;;;;;;;;4.65;73.29;100123.22;5055987;28;19976;-64
2021/12/27 00:37:11;;;;;;;;;;;;;;;4.66;73.45;100129.53;5055033;28;20015;-64
2021/12/27 00:39:37;;;;;;;;;;;;;;;4.67;73.40;100125.72;5055382;28;20374;-65
2021/12/27 00:42:02;;;;;;;;;;;;;;;4.66;73.55;100119.38;5054913;28;19920;-64
2021/12/27 00:44:27;;;;;;;;;;;;;;;4.67;73.24;100111.97;5054701;28;19974;-64
2021/12/27 00:46:53;;;;;;;;;;;;;;;4.68;73.17;100109.00;5055350;28;19921;-65
2021/12/27 00:49:22;;;;;;;;;;;;;;;4.70;73.32;100100.53;5056163;28;20323;-65
2021/12/27 00:51:47;;;;;;;;;;;;;;;4.70;73.26;100092.28;5054465;28;19921;-64
2021/12/27 00:54:12;;;;;;;;;;;;;;;4.71;73.41;100088.44;5054810;28;19943;-64
2021/12/27 00:56:38;;;;;;;;;;;;;;;4.72;73.75;100089.31;5051778;28;19978;-64
2021/12/27 00:59:03;;;;;;;;;;;;;;;4.74;73.40;100092.66;5055875;28;19921;-64
2021/12/27 01:01:28;;;;;;;;;;;;;;;4.75;73.55;100091.56;5055401;28;19968;-64
2021/12/27 01:03:53;;;;;;;;;;;;;;;4.75;73.67;100086.91;5055061;28;19921;-64
2021/12/27 01:06:18;;;;;;;;;;;;;;;4.77;73.60;100093.03;5054420;28;19920;-64
2021/12/27 01:08:46;;;;;;;;;;;;;;;4.80;73.14;100088.97;5055174;28;19921;-65
2021/12/27 01:11:26;;;;;;;;;;;;;;;4.80;73.40;100092.56;5054108;28;20375;-64
2021/12/27 01:14:11;;;;;;;;;;;;;;;4.80;73.50;100091.72;5053182;28;20322;-64
2021/12/27 01:16:41;;;;;;;;;;;;;;;4.80;73.71;100086.22;5039498;28;19967;-64
2021/12/27 01:19:06;;;;;;;;;;;;;;;4.80;73.73;100086.22;5053521;28;20011;-64
2021/12/27 01:21:34;;;;;;;;;;;;;;;4.81;73.54;100087.91;5055151;28;19971;-64
2021/12/27 01:24:00;;;;;;;;;;;;;;;4.84;73.69;100092.94;5054378;28;19958;-64
2021/12/27 01:26:27;;;;;;;;;;;;;;;4.84;73.74;100084.69;5054536;28;19921;-64
2021/12/27 01:28:56;;;;;;;;;;;;;;;4.85;73.65;100086.34;5053821;28;19921;-65
2021/12/27 01:31:22;;;;;;;;;;;;;;;4.86;73.84;100083.34;5053800;28;19925;-65
2021/12/27 01:33:50;;;;;;;;;;;;;;;4.86;73.73;100080.59;5054304;28;20399;-64
2021/12/27 01:36:16;;;;;;;;;;;;;;;4.87;73.56;100085.06;5053112;28;20316;-64
2021/12/27 01:38:41;;;;;;;;;;;;;;;4.87;73.64;100082.31;5055204;28;19925;-66
2021/12/27 01:41:09;;;;;;;;;;;;;;;4.86;73.77;100085.28;5052543;28;19956;-64
2021/12/27 01:43:35;;;;;;;;;;;;;;;4.87;73.42;100073.19;5054516;28;19933;-65
2021/12/27 01:46:02;;;;;;;;;;;;;;;4.86;73.66;100075.09;5052704;28;20125;-65
2021/12/27 01:48:32;;;;;;;;;;;;;;;4.88;73.34;100081.22;5054870;28;20450;-65
2021/12/27 01:50:58;;;;;;;;;;;;;;;4.89;73.19;100071.06;5053703;28;20011;-65
2021/12/27 01:53:28;;;;;;;;;;;;;;;4.88;73.65;100070.22;5054179;28;20347;-65
2021/12/27 01:55:54;;;;;;;;;;;;;;;4.89;73.83;100068.31;5053551;28;19968;-65
2021/12/27 01:58:20;;;;;;;;;;;;;;;4.90;73.63;100070.81;5054338;28;19940;-65
2021/12/27 02:00:48;;;;;;;;;;;;;;;4.91;73.93;100063.41;5053375;28;20423;-65
2021/12/27 02:03:15;;;;;;;;;;;;;;;4.92;73.87;100067.84;5053257;28;19927;-65
2021/12/27 02:05:40;;;;;;;;;;;;;;;4.93;74.02;100064.03;5054659;28;19930;-64
2021/12/27 02:08:05;;;;;;;;;;;;;;;4.95;73.98;100061.84;5052737;28;20064;-65
2021/12/27 02:10:32;;;;;;;;;;;;;;;4.97;74.11;100064.38;5049789;28;20320;-65
2021/12/27 02:12:57;;;;;;;;;;;;;;;4.98;74.08;100063.31;5053402;28;20381;-64
2021/12/27 02:15:22;;;;;;;;;;;;;;;4.99;74.10;100057.59;5053427;28;20050;-65
2021/12/27 02:17:47;;;;;;;;;;;;;;;5.01;74.02;100060.09;5052729;28;20073;-65
2021/12/27 02:20:16;;;;;;;;;;;;;;;5.02;73.98;100062.59;5054455;28;19925;-65
2021/12/27 02:22:41;;;;;;;;;;;;;;;5.04;74.24;100056.88;5049798;28;19936;-63
2021/12/27 02:25:10;;;;;;;;;;;;;;;5.03;73.98;100064.28;5050020;28;19921;-63
2021/12/27 02:27:35;;;;;;;;;;;;;;;5.04;74.20;100063.22;5053726;28;19932;-64
2021/12/27 02:30:01;;;;;;;;;;;;;;;5.05;74.36;100062.13;5052030;28;19944;-63
2021/12/27 02:32:26;;;;;;;;;;;;;;;5.07;74.24;100057.25;5053968;28;19920;-64
2021/12/27 02:34:51;;;;;;;;;;;;;;;5.09;74.22;100057.84;5051507;28;19920;-64
2021/12/27 02:37:17;;;;;;;;;;;;;;;5.10;74.19;100050.41;5053244;28;19925;-65
2021/12/27 02:39:44;;;;;;;;;;;;;;;5.11;73.97;100060.38;5053854;28;19921;-64
2021/12/27 02:42:09;;;;;;;;;;;;;;;5.11;74.25;100063.94;5052516;28;19951;-64
2021/12/27 02:44:34;;;;;;;;;;;;;;;5.11;74.13;100066.69;5051977;28;20246;-64
2021/12/27 02:47:00;;;;;;;;;;;;;;;5.11;74.06;100065.88;5052438;28;19982;-64
2021/12/27 02:49:25;;;;;;;;;;;;;;;5.10;74.23;100059.50;5052871;28;19921;-64
2021/12/27 02:51:52;;;;;;;;;;;;;;;5.10;74.29;100048.50;5051120;28;19920;-64
2021/12/27 02:54:17;;;;;;;;;;;;;;;5.11;74.31;100050.19;5052851;28;19924;-64
2021/12/27 02:56:43;;;;;;;;;;;;;;;5.12;74.24;100040.84;5051474;28;19920;-64
2021/12/27 02:59:08;;;;;;;;;;;;;;;5.13;74.70;100036.19;5052961;28;20418;-64
2021/12/27 03:01:39;;;;;;;;;;;;;;;5.14;74.65;100040.59;5052406;28;19974;-64
2021/12/27 03:04:06;;;;;;;;;;;;;;;5.16;74.30;100043.97;5051853;28;21348;-63
2021/12/27 03:06:31;;;;;;;;;;;;;;;5.16;74.39;100043.97;5053275;28;19921;-64
2021/12/27 03:08:56;;;;;;;;;;;;;;;5.17;73.86;100040.13;5050298;28;19921;-64
2021/12/27 03:11:21;;;;;;;;;;;;;;;5.16;74.60;100039.31;5051581;28;20011;-64
2021/12/27 03:13:47;;;;;;;;;;;;;;;5.17;74.36;100035.47;5052750;28;19920;-64
2021/12/27 03:16:16;;;;;;;;;;;;;;;5.17;74.73;100024.47;5053360;28;19921;-64
2021/12/27 03:18:42;;;;;;;;;;;;;;;5.20;74.64;100022.34;5050963;28;19921;-64
2021/12/27 03:21:08;;;;;;;;;;;;;;;5.19;74.42;100021.50;5053877;28;19917;-64
2021/12/27 03:23:34;;;;;;;;;;;;;;;5.21;74.57;100029.50;5053113;28;19951;-64
2021/12/27 03:25:59;;;;;;;;;;;;;;;5.22;74.49;100028.41;5056356;28;19931;-64
2021/12/27 03:28:25;;;;;;;;;;;;;;;5.23;74.87;100025.44;5053088;28;19924;-64
2021/12/27 03:30:53;;;;;;;;;;;;;;;5.23;74.73;100021.88;5052630;28;19917;-64
2021/12/27 03:33:21;;;;;;;;;;;;;;;5.26;74.16;100029.63;5051101;28;19963;-64
2021/12/27 03:36:04;;;;;;;;;;;;;;;5.25;74.71;100027.94;5053069;28;19924;-64
2021/12/27 03:38:43;;;;;;;;;;;;;;;5.26;74.49;100024.94;5051779;28;19920;-64
2021/12/27 03:41:13;;;;;;;;;;;;;;;5.26;74.65;100024.94;5042970;28;19921;-64
2021/12/27 03:43:39;;;;;;;;;;;;;;;5.26;74.59;100019.44;5050111;28;20376;-64
2021/12/27 03:46:04;;;;;;;;;;;;;;;5.27;74.78;100025.81;5052065;28;19927;-64
2021/12/27 03:48:29;;;;;;;;;;;;;;;5.29;74.53;100018.13;5052103;28;19924;-64
2021/12/27 03:50:55;;;;;;;;;;;;;;;5.29;74.71;100012.63;5053443;28;20466;-64
2021/12/27 03:53:20;;;;;;;;;;;;;;;5.31;74.77;100013.25;5050617;28;19948;-64
2021/12/27 03:55:45;;;;;;;;;;;;;;;5.32;74.76;100001.16;5051114;28;20292;-65
2021/12/27 03:58:23;;;;;;;;;;;;;;;5.34;74.74;99993.47;5051276;28;19933;-64
2021/12/27 04:01:01;;;;;;;;;;;;;;;5.34;74.87;99999.81;5050574;28;20003;-64
2021/12/27 04:03:27;;;;;;;;;;;;;;;5.35;75.08;99990.50;5052725;28;19928;-64
2021/12/27 04:05:52;;;;;;;;;;;;;;;5.36;74.85;99986.69;5052858;28;19920;-64
2021/12/27 04:08:18;;;;;;;;;;;;;;;5.37;74.62;99987.50;5050398;28;19921;-62
2021/12/27 04:10:44;;;;;;;;;;;;;;;5.38;74.71;99994.69;5046856;28;20004;-62
2021/12/27 04:13:10;;;;;;;;;;;;;;;5.38;74.57;99984.53;5052591;28;19924;-62
2021/12/27 04:15:36;;;;;;;;;;;;;;;5.39;74.79;99982.63;5049671;28;19921;-63
2021/12/27 04:18:01;;;;;;;;;;;;;;;5.38;74.80;99979.03;5052006;28;19947;-64
2021/12/27 04:20:26;;;;;;;;;;;;;;;5.39;75.04;99982.63;5052011;28;20431;-63
2021/12/27 04:22:52;;;;;;;;;;;;;;;5.38;74.89;99976.28;5050822;28;19917;-63
2021/12/27 04:25:17;;;;;;;;;;;;;;;5.39;74.97;99974.38;5046030;28;19928;-63
2021/12/27 04:27:47;;;;;;;;;;;;;;;5.37;74.64;99971.84;5049931;28;20268;-63
2021/12/27 04:30:17;;;;;;;;;;;;;;;5.37;74.96;99969.06;5050974;28;19995;-64
2021/12/27 04:32:42;;;;;;;;;;;;;;;5.38;75.24;99962.53;5051126;28;19959;-63
2021/12/27 04:35:08;;;;;;;;;;;;;;;5.41;75.19;99963.94;5050012;28;19925;-63
2021/12/27 04:37:33;;;;;;;;;;;;;;;5.41;75.45;99958.44;5053054;28;19960;-63
2021/12/27 04:39:59;;;;;;;;;;;;;;;5.43;75.00;99964.53;5052739;28;19929;-63
2021/12/27 04:42:25;;;;;;;;;;;;;;;5.43;75.02;99967.28;5051614;28;19921;-64
2021/12/27 04:44:50;;;;;;;;;;;;;;;5.45;74.98;99956.88;5049960;28;20304;-64
2021/12/27 04:47:22;;;;;;;;;;;;;;;5.46;75.20;99960.44;5052201;28;19939;-64
2021/12/27 04:49:47;;;;;;;;;;;;;;;5.47;75.47;99956.66;5053627;28;19927;-63
2021/12/27 04:52:12;;;;;;;;;;;;;;;5.47;75.54;99957.47;5056061;28;19921;-63
2021/12/27 04:54:38;;;;;;;;;;;;;;;5.49;75.43;99959.97;5055939;28;20387;-64
2021/12/27 04:57:04;;;;;;;;;;;;;;;5.50;75.57;99958.88;5051702;28;19931;-63
2021/12/27 04:59:29;;;;;;;;;;;;;;;5.52;75.13;99951.25;5054706;28;19921;-63
2021/12/27 05:01:54;;;;;;;;;;;;;;;5.52;75.32;99957.56;5055797;28;19921;-64
2021/12/27 05:04:22;;;;;;;;;;;;;;;5.54;75.74;99949.94;5053018;28;19931;-64
2021/12/27 05:06:47;;;;;;;;;;;;;;;5.54;74.99;99947.19;5056386;28;19960;-63
2021/12/27 05:09:13;;;;;;;;;;;;;;;5.56;75.71;99958.78;5053230;28;19963;-63
2021/12/27 05:11:41;;;;;;;;;;;;;;;5.56;75.16;99945.00;5054672;28;20316;-64
2021/12/27 05:14:07;;;;;;;;;;;;;;;5.57;75.57;99951.34;5054319;28;20115;-64
2021/12/27 05:16:32;;;;;;;;;;;;;;;5.57;75.21;99954.09;5055248;28;20031;-64
2021/12/27 05:18:57;;;;;;;;;;;;;;;5.56;75.33;99950.50;5053418;28;19925;-64
2021/12/27 05:21:22;;;;;;;;;;;;;;;5.58;75.38;99951.13;5055229;28;19925;-64
2021/12/27 05:23:48;;;;;;;;;;;;;;;5.59;75.50;99952.78;5054401;28;19971;-64
2021/12/27 05:26:13;;;;;;;;;;;;;;;5.59;75.46;99952.78;5052024;28;20384;-64
2021/12/27 05:28:38;;;;;;;;;;;;;;;5.60;75.44;99942.59;5055180;28;19920;-64
2021/12/27 05:31:03;;;;;;;;;;;;;;;5.61;75.37;99947.84;5052875;28;20019;-64
2021/12/27 05:33:28;;;;;;;;;;;;;;;5.61;75.28;99942.34;5055026;28;19995;-64
2021/12/27 05:35:54;;;;;;;;;;;;;;;5.62;75.49;99932.19;5054918;28;19928;-64
2021/12/27 05:38:19;;;;;;;;;;;;;;;5.61;75.50;99930.50;5053596;28;19924;-65
2021/12/27 05:40:47;;;;;;;;;;;;;;;5.61;75.19;99933.25;5053738;28;19927;-64
2021/12/27 05:43:12;;;;;;;;;;;;;;;5.60;75.98;99924.16;5054821;28;20039;-64
2021/12/27 05:45:37;;;;;;;;;;;;;;;5.61;75.79;99928.59;5056977;28;20000;-64
2021/12/27 05:48:03;;;;;;;;;;;;;;;5.62;75.54;99923.94;5053671;28;19924;-64
2021/12/27 05:50:31;;;;;;;;;;;;;;;5.63;75.83;99931.13;5054706;28;20349;-64
2021/12/27 05:52:57;;;;;;;;;;;;;;;5.64;76.11;99938.28;5053658;28;19975;-64
2021/12/27 05:55:22;;;;;;;;;;;;;;;5.64;75.76;99935.53;5052031;28;19960;-63
2021/12/27 05:57:47;;;;;;;;;;;;;;;5.66;75.46;99936.16;5053244;28;19925;-65
2021/12/27 06:00:13;;;;;;;;;;;;;;;5.67;75.60;99937.81;5054080;28;19925;-64
2021/12/27 06:02:39;;;;;;;;;;;;;;;5.68;75.93;99946.91;5050037;28;19935;-64
2021/12/27 06:05:04;;;;;;;;;;;;;;;5.68;75.90;99939.47;5054426;28;19964;-64
2021/12/27 06:07:30;;;;;;;;;;;;;;;5.69;75.15;99941.13;5052170;28;19955;-64
2021/12/27 06:09:59;;;;;;;;;;;;;;;5.71;75.38;99940.91;5064950;28;19962;-64
2021/12/27 06:12:24;;;;;;;;;;;;;;;5.73;75.89;99935.97;5042095;28;19939;-64
2021/12/27 06:14:49;;;;;;;;;;;;;;;5.74;75.82;99932.16;5055249;28;20295;-64
2021/12/27 06:17:14;;;;;;;;;;;;;;;5.74;76.25;99933.00;5052980;28;20011;-63
2021/12/27 06:19:40;;;;;;;;;;;;;;;5.76;76.27;99932.75;5051909;28;19927;-64
2021/12/27 06:22:05;;;;;;;;;;;;;;;5.76;76.05;99933.59;5051240;28;19960;-63
2021/12/27 06:24:30;;;;;;;;;;;;;;;5.79;76.05;99933.09;5048029;28;19925;-64
2021/12/27 06:26:55;;;;;;;;;;;;;;;5.81;76.24;99932.84;5049552;28;19940;-64
2021/12/27 06:29:21;;;;;;;;;;;;;;;5.82;76.01;99934.53;5052132;28;20352;-64
2021/12/27 06:31:46;;;;;;;;;;;;;;;5.84;76.04;99932.38;5052927;28;20058;-64
2021/12/27 06:34:11;;;;;;;;;;;;;;;5.85;75.44;99923.00;5050882;28;19929;-63
2021/12/27 06:36:36;;;;;;;;;;;;;;;5.85;76.20;99929.34;5050582;28;19978;-64
2021/12/27 06:39:09;;;;;;;;;;;;;;;5.86;75.86;99931.03;5051027;28;19929;-64
2021/12/27 06:41:34;;;;;;;;;;;;;;;5.88;76.50;99920.59;5050968;28;19921;-64
2021/12/27 06:44:00;;;;;;;;;;;;;;;5.89;75.96;99927.81;5052686;28;19927;-64
2021/12/27 06:46:26;;;;;;;;;;;;;;;5.90;76.45;99917.63;5052943;28;19927;-64
2021/12/27 06:48:51;;;;;;;;;;;;;;;5.91;75.98;99925.63;5046580;28;19929;-62
2021/12/27 06:51:16;;;;;;;;;;;;;;;5.93;76.28;99922.66;5053259;28;19928;-65
2021/12/27 06:53:44;;;;;;;;;;;;;;;5.94;76.11;99918.00;5051349;28;20011;-66
2021/12/27 06:56:09;;;;;;;;;;;;;;;5.94;75.99;99909.75;5050551;28;20342;-65
2021/12/27 06:58:38;;;;;;;;;;;;;;;5.96;76.19;99902.88;5052491;28;19921;-65
2021/12/27 07:01:03;;;;;;;;;;;;;;;5.97;76.50;99910.06;5048887;28;19921;-65
2021/12/27 07:03:29;;;;;;;;;;;;;;;5.98;76.36;99899.91;5052189;28;20402;-65
2021/12/27 07:05:54;;;;;;;;;;;;;;;5.99;76.52;99902.41;5050194;28;19916;-65
2021/12/27 07:08:19;;;;;;;;;;;;;;;5.99;76.59;99896.88;5052870;28;19931;-65
2021/12/27 07:10:45;;;;;;;;;;;;;;;5.99;76.46;99885.88;5050137;28;19920;-64
2021/12/27 07:13:10;;;;;;;;;;;;;;;6.01;76.32;99880.97;5052119;28;20011;-65
2021/12/27 07:15:41;;;;;;;;;;;;;;;6.03;76.23;99895.31;5050529;28;21339;-64
2021/12/27 07:18:07;;;;;;;;;;;;;;;6.03;76.06;99898.06;5050745;28;19920;-64
2021/12/27 07:20:35;;;;;;;;;;;;;;;6.03;76.11;99891.72;5046810;28;19933;-65
2021/12/27 07:23:00;;;;;;;;;;;;;;;6.03;75.65;99892.56;5045846;28;20030;-65
2021/12/27 07:25:28;;;;;;;;;;;;;;;6.04;76.76;99887.88;5046715;28;20327;-65
2021/12/27 07:27:53;;;;;;;;;;;;;;;6.05;76.63;99884.03;5052046;28;19921;-64
2021/12/27 07:30:21;;;;;;;;;;;;;;;6.06;76.92;99880.22;5050161;28;20024;-64
2021/12/27 07:32:47;;;;;;;;;;;;;;;6.07;76.23;99893.75;5048388;28;19920;-63
2021/12/27 07:35:12;;;;;;;;;;;;;;;6.06;76.13;99883.81;5050929;28;20015;-62
2021/12/27 07:37:38;;;;;;;;;;;;;;;6.07;76.59;99896.50;5046592;28;19921;-63
2021/12/27 07:40:04;;;;;;;;;;;;;;;6.08;76.77;99889.06;5045654;28;19924;-62
2021/12/27 07:42:29;;;;;;;;;;;;;;;6.07;76.12;99885.47;5045297;28;19971;-62
2021/12/27 07:44:54;;;;;;;;;;;;;;;6.09;76.62;99888.84;5049469;28;19927;-62
2021/12/27 07:47:20;;;;;;;;;;;;;;;6.09;76.14;99897.09;5049299;28;20008;-62
2021/12/27 07:49:45;;;;;;;;;;;;;;;6.09;76.09;99896.22;5050127;28;19921;-61
2021/12/27 07:52:10;;;;;;;;;;;;;;;6.10;76.11;99896.00;5050626;28;20450;-62
2021/12/27 07:54:41;;;;;;;;;;;;;;;6.10;76.17;99901.50;5049491;28;19924;-61
2021/12/27 07:57:06;;;;;;;;;;;;;;;6.12;76.62;99893.81;5050101;28;19928;-62
2021/12/27 07:59:32;;;;;;;;;;;;;;;6.25;80.52;99892.69;5047626;28;19921;-62
2021/12/27 08:01:57;;;;;;;;;;;;;;;6.78;79.74;99896.06;5028656;28;20390;-61
2021/12/27 08:04:23;;;;;;;;;;;;;;;7.03;79.42;99890.09;5028433;28;19932;-62
2021/12/27 08:06:49;;;;;;;;;;;;;;;7.14;77.46;99894.66;5028866;28;19917;-62
2021/12/27 08:09:14;;;;;;;;;;;;;;;7.05;76.14;99886.00;5032020;28;19956;-61
2021/12/27 08:11:42;;;;;;;;;;;;;;;6.95;75.97;99893.28;5026065;28;20310;-62
2021/12/27 08:14:07;;;;;;;;;;;;;;;6.84;76.17;99897.81;5043008;28;19921;-62
2021/12/27 08:16:33;;;;;;;;;;;;;;;6.75;75.74;99913.09;5040052;28;19924;-62
2021/12/27 08:18:58;;;;;;;;;;;;;;;6.67;75.54;99910.75;5029157;28;19921;-62
2021/12/27 08:21:24;;;;;;;;;;;;;;;6.60;75.27;99906.25;5026875;28;19964;-62
2021/12/27 08:23:49;;;;;;;;;;;;;;;6.54;75.42;99903.66;5029155;28;20743;-62
2021/12/27 08:26:15;;;;;;;;;;;;;;;6.50;75.37;99906.09;5023982;28;19932;-61
2021/12/27 08:28:41;;;;;;;;;;;;;;;6.47;75.92;99912.09;5029727;28;20033;-62
2021/12/27 08:31:06;;;;;;;;;;;;;;;6.44;76.38;99904.31;5024514;28;20028;-62
2021/12/27 08:33:32;;;;;;;;;;;;;;;6.44;76.16;99898.78;5034127;28;20036;-61
2021/12/27 08:35:57;;;;;;;;;;;;;;;6.44;76.24;99893.28;5033043;28;19921;-61
2021/12/27 08:38:22;;;;;;;;;;;;;;;6.45;75.70;99892.22;5029574;28;20063;-62
2021/12/27 08:40:50;;;;;;;;;;;;;;;6.45;76.42;99889.47;5029213;28;19986;-64
2021/12/27 08:43:15;;;;;;;;;;;;;;;6.46;75.83;99896.63;5037366;28;20440;-62
2021/12/27 08:45:44;;;;;;;;;;;;;;;6.46;76.24;99884.78;5033389;28;20051;-62
2021/12/27 08:48:09;;;;;;;;;;;;;;;6.45;75.39;99886.69;5028434;28;20946;-61
2021/12/27 08:50:37;;;;;;;;;;;;;;;6.45;76.07;99875.69;5033408;28;19921;-62
2021/12/27 08:53:02;;;;;;;;;;;;;;;6.46;75.92;99869.06;5033054;28;19925;-63
2021/12/27 08:55:28;;;;;;;;;;;;;;;6.47;75.41;99865.22;5044073;28;20340;-63
2021/12/27 08:57:53;;;;;;;;;;;;;;;6.49;75.96;99856.72;5032054;28;19921;-60
2021/12/27 09:00:18;;;;;;;;;;;;;;;6.49;76.06;99853.97;5036608;28;20506;-60
2021/12/27 09:02:44;;;;;;;;;;;;;;;6.56;75.92;99847.19;5051029;28;20507;-62
2021/12/27 09:05:15;;;;;;;;;;;;;;;6.63;77.20;99858.03;5052461;28;20419;-60
2021/12/27 09:07:41;;;;;;;;;;;;;;;6.71;75.71;99854.84;5052159;28;19940;-61
2021/12/27 09:10:06;;;;;;;;;;;;;;;6.69;77.08;99857.03;5053965;28;20387;-61
2021/12/27 09:12:31;;;;;;;;;;;;;;;6.75;75.65;99861.53;5050709;28;19924;-60
2021/12/27 09:14:57;;;;;;;;;;;;;;;6.74;75.82;99859.03;5045882;28;19929;-60
2021/12/27 09:17:22;;;;;;;;;;;;;;;6.72;76.05;99863.94;5051741;28;19927;-61
2021/12/27 09:19:47;;;;;;;;;;;;;;;6.70;76.20;99857.88;5054165;28;19924;-60
2021/12/27 09:22:15;;;;;;;;;;;;;;;6.69;75.84;99867.25;5054033;28;19923;-60
2021/12/27 09:24:41;;;;;;;;;;;;;;;6.66;75.55;99867.72;5050641;28;20249;-61
2021/12/27 09:27:06;;;;;;;;;;;;;;;6.64;75.74;99871.59;5053007;28;19928;-60
2021/12/27 09:29:32;;;;;;;;;;;;;;;6.61;75.64;99874.00;5051289;28;19920;-61
2021/12/27 09:31:57;;;;;;;;;;;;;;;6.59;75.12;99862.38;5050217;28;19963;-61
2021/12/27 09:34:22;;;;;;;;;;;;;;;6.59;76.02;99857.69;5051817;28;19924;-60
2021/12/27 09:36:47;;;;;;;;;;;;;;;6.59;75.37;99851.34;5052299;28;19925;-61
2021/12/27 09:39:13;;;;;;;;;;;;;;;6.59;75.68;99851.34;5046883;28;20422;-62
2021/12/27 09:41:38;;;;;;;;;;;;;;;6.61;75.96;99844.50;5049023;28;19928;-62
2021/12/27 09:44:04;;;;;;;;;;;;;;;6.63;75.69;99847.00;5052823;28;19973;-61
2021/12/27 09:46:30;;;;;;;;;;;;;;;6.63;75.74;99847.00;5049569;28;19948;-62
2021/12/27 09:48:56;;;;;;;;;;;;;;;6.62;75.55;99843.41;5050077;28;20364;-61
2021/12/27 09:51:22;;;;;;;;;;;;;;;6.62;75.72;99845.34;5048488;28;19928;-62
2021/12/27 09:53:47;;;;;;;;;;;;;;;6.62;75.18;99845.34;5049050;28;19925;-62
2021/12/27 09:56:13;;;;;;;;;;;;;;;6.62;75.82;99846.19;5049245;28;19975;-61
2021/12/27 09:58:39;;;;;;;;;;;;;;;6.63;75.58;99847.84;5050110;28;19996;-61
2021/12/27 10:01:06;;;;;;;;;;;;;;;6.64;75.12;99837.63;5039801;28;20006;-62
2021/12/27 10:03:31;;;;;;;;;;;;;;;6.66;75.77;99840.16;5025306;28;21021;-62
2021/12/27 10:06:09;;;;;;;;;;;;;;;6.68;75.77;99835.22;5029254;28;20008;-61
2021/12/27 10:08:35;;;;;;;;;;;;;;;6.77;76.14;99817.16;5023911;28;19936;-60
2021/12/27 10:11:00;;;;;;;;;;;;;;;6.91;75.84;99803.84;5030237;28;19930;-60
2021/12/27 10:13:25;;;;;;;;;;;;;;;6.94;76.02;99800.56;5026222;28;19935;-60
2021/12/27 10:15:50;;;;;;;;;;;;;;;6.93;75.34;99807.19;5026144;28;20368;-62
2021/12/27 10:18:16;;;;;;;;;;;;;;;6.93;75.71;99801.66;5029405;28;19921;-64
2021/12/27 10:20:42;;;;;;;;;;;;;;;6.93;75.15;99808.03;5030113;28;19925;-62
2021/12/27 10:23:07;;;;;;;;;;;;;;;6.93;75.73;99808.03;5027854;28;19917;-62
2021/12/27 10:25:32;;;;;;;;;;;;;;;6.94;74.78;99817.97;5029222;28;20335;-63
2021/12/27 10:27:59;;;;;;;;;;;;;;;6.94;75.28;99826.22;5028454;28;19922;-62
2021/12/27 10:30:29;;;;;;;;;;;;;;;6.95;75.50;99813.28;5027412;28;19924;-64
2021/12/27 10:33:06;;;;;;;;;;;;;;;6.94;75.46;99823.47;5018377;28;19948;-63
2021/12/27 10:35:39;;;;;;;;;;;;;;;6.95;75.81;99816.84;5028075;28;19921;-62
2021/12/27 10:38:11;;;;;;;;;;;;;;;6.96;75.89;99804.75;5023976;28;19925;-65
2021/12/27 10:40:37;;;;;;;;;;;;;;;6.98;75.44;99801.72;5028431;28;19928;-63
2021/12/27 10:43:02;;;;;;;;;;;;;;;6.99;75.13;99800.63;5025172;28;19922;-62
2021/12/27 10:45:28;;;;;;;;;;;;;;;7.01;75.89;99804.81;5024605;28;20433;-64
2021/12/27 10:47:55;;;;;;;;;;;;;;;7.05;75.04;99794.94;5028965;28;19975;-62
2021/12/27 10:50:28;;;;;;;;;;;;;;;7.08;75.79;99793.59;5026491;28;19926;-62
2021/12/27 10:52:55;;;;;;;;;;;;;;;7.14;75.85;99793.38;5030373;28;19917;-61
2021/12/27 10:55:26;;;;;;;;;;;;;;;7.20;76.02;99797.06;5023392;28;20384;-62
2021/12/27 10:57:52;;;;;;;;;;;;;;;7.27;76.55;99789.44;5016873;28;19921;-62
2021/12/27 11:00:28;;;;;;;;;;;;;;;7.36;76.66;99795.31;5031235;28;20335;-62
2021/12/27 11:02:54;;;;;;;;;;;;;;;7.38;76.36;99791.19;5047886;28;19920;-63
2021/12/27 11:05:23;;;;;;;;;;;;;;;7.38;76.07;99793.97;5048163;28;20296;-63
2021/12/27 11:07:50;;;;;;;;;;;;;;;7.37;75.30;99788.72;5047664;28;19988;-63
2021/12/27 11:10:15;;;;;;;;;;;;;;;7.38;75.75;99798.66;5047102;28;20372;-62
2021/12/27 11:12:40;;;;;;;;;;;;;;;7.35;75.34;99794.50;5046849;28;19927;-63
2021/12/27 11:15:09;;;;;;;;;;;;;;;7.36;75.30;99785.13;5049141;28;19929;-63
2021/12/27 11:17:35;;;;;;;;;;;;;;;7.36;75.45;99785.13;5048465;28;20397;-63
2021/12/27 11:20:00;;;;;;;;;;;;;;;7.36;76.14;99781.53;5047488;28;19936;-64
2021/12/27 11:22:25;;;;;;;;;;;;;;;7.38;75.94;99779.31;5050111;28;19952;-63
2021/12/27 11:24:50;;;;;;;;;;;;;;;7.38;76.16;99773.81;5048626;28;19990;-63
2021/12/27 11:27:16;;;;;;;;;;;;;;;7.39;75.91;99767.22;5048729;28;20439;-62
2021/12/27 11:29:41;;;;;;;;;;;;;;;7.41;76.17;99761.41;5050046;28;19956;-61
2021/12/27 11:32:11;;;;;;;;;;;;;;;7.42;76.16;99760.31;5047860;28;20335;-61
2021/12/27 11:34:52;;;;;;;;;;;;;;;7.42;76.21;99755.63;5048933;28;19924;-60
2021/12/27 11:37:18;;;;;;;;;;;;;;;7.41;76.33;99759.50;5050740;28;19975;-61
2021/12/27 11:39:43;;;;;;;;;;;;;;;7.41;75.62;99759.50;5048063;28;19956;-60
2021/12/27 11:42:09;;;;;;;;;;;;;;;7.42;76.46;99750.09;5047305;28;19935;-61
2021/12/27 11:44:40;;;;;;;;;;;;;;;7.43;76.39;99748.19;5050714;28;19921;-61
2021/12/27 11:47:06;;;;;;;;;;;;;;;7.44;76.66;99745.16;5048011;28;19929;-60
2021/12/27 11:49:44;;;;;;;;;;;;;;;7.47;77.17;99741.06;5049109;28;20345;-62
2021/12/27 11:52:15;;;;;;;;;;;;;;;7.46;77.03;99731.94;5050570;28;20044;-62
2021/12/27 11:54:49;;;;;;;;;;;;;;;7.47;76.77;99718.97;5048289;28;19924;-62
2021/12/27 11:57:34;;;;;;;;;;;;;;;7.49;76.54;99719.53;5053052;28;20023;-62
2021/12/27 11:59:59;;;;;;;;;;;;;;;7.51;76.33;99717.38;5046561;28;21474;-63
2021/12/27 12:02:26;;;;;;;;;;;;;;;7.50;76.69;99713.75;5047535;28;19932;-62
2021/12/27 12:04:52;;;;;;;;;;;;;;;7.52;76.75;99713.50;5047241;28;19929;-62
2021/12/27 12:07:33;;;;;;;;;;;;;;;7.53;76.67;99720.69;5047098;28;19929;-62
2021/12/27 12:09:58;;;;;;;;;;;;;;;7.54;77.04;99714.06;5036311;28;19960;-61
2021/12/27 12:12:23;;;;;;;;;;;;;;;7.54;76.97;99725.94;5038478;28;20360;-62
2021/12/27 12:14:56;;;;;;;;;;;;;;;7.55;76.97;99719.34;5046879;28;20289;-62
2021/12/27 12:17:39;;;;;;;;;;;;;;;7.56;77.17;99717.41;5044268;28;19928;-61
2021/12/27 12:20:05;;;;;;;;;;;;;;;7.56;76.98;99723.75;5039743;28;19931;-59
2021/12/27 12:22:35;;;;;;;;;;;;;;;7.57;76.18;99719.06;5032928;28;19924;-60
2021/12/27 12:25:16;;;;;;;;;;;;;;;7.59;76.65;99714.13;5039107;28;19925;-62
2021/12/27 12:28:00;;;;;;;;;;;;;;;7.60;76.56;99713.84;5044541;28;19925;-63
2021/12/27 12:30:28;;;;;;;;;;;;;;;7.64;77.01;99692.06;5048811;28;19966;-62
2021/12/27 12:33:16;;;;;;;;;;;;;;;7.66;77.01;99692.63;5045205;28;19964;-61
2021/12/27 12:35:45;;;;;;;;;;;;;;;7.69;76.90;99694.88;5045085;28;19920;-61
2021/12/27 12:38:24;;;;;;;;;;;;;;;7.72;76.60;99683.31;5043855;28;19970;-61
2021/12/27 12:41:04;;;;;;;;;;;;;;;7.77;77.54;99694.38;5040554;28;19959;-62
2021/12/27 12:43:38;;;;;;;;;;;;;;;7.80;77.48;99695.81;5046664;28;20074;-62
2021/12/27 12:46:15;;;;;;;;;;;;;;;7.83;76.57;99690.59;5048336;28;20384;-62
2021/12/27 12:48:40;;;;;;;;;;;;;;;7.85;76.92;99693.91;5044450;28;19955;-62
2021/12/27 12:51:06;;;;;;;;;;;;;;;7.86;76.83;99683.72;5042741;28;19928;-62